sensor_id;sensor_type;location;lat;lon;timestamp;temperature;humidity
24636;DHT22;12772;49.794;10.024;2023-04-03T00:01:26;6.20;46.00
24636;DHT22;12772;49.794;10.024;2023-04-03T00:05:29;5.90;45.60
24636;DHT22;12772;49.794;10.024;2023-04-03T00:09:31;6.40;46.20
24636;DHT22;12772;49.794;10.024;2023-04-03T00:13:33;5.90;45.90
24636;DHT22;12772;49.794;10.024;2023-04-03T00:17:35;6.30;46.50
24636;DHT22;12772;49.794;10.024;2023-04-03T00:21:38;6.20;46.30
24636;DHT22;12772;49.794;10.024;2023-04-03T00:25:41;6.00;46.30
24636;DHT22;12772;49.794;10.024;2023-04-03T00:29:43;6.10;46.50
24636;DHT22;12772;49.794;10.024;2023-04-03T00:33:45;5.90;46.90
24636;DHT22;12772;49.794;10.024;2023-04-03T00:37:47;5.80;46.40
24636;DHT22;12772;49.794;10.024;2023-04-03T00:41:50;5.80;46.40
24636;DHT22;12772;49.794;10.024;2023-04-03T00:45:54;6.00;46.80
24636;DHT22;12772;49.794;10.024;2023-04-03T00:49:57;6.30;47.20
24636;DHT22;12772;49.794;10.024;2023-04-03T00:54:01;6.20;47.00
24636;DHT22;12772;49.794;10.024;2023-04-03T00:58:05;5.70;46.70
24636;DHT22;12772;49.794;10.024;2023-04-03T01:02:08;5.80;46.90
24636;DHT22;12772;49.794;10.024;2023-04-03T01:06:18;5.80;47.00
24636;DHT22;12772;49.794;10.024;2023-04-03T01:10:21;5.70;47.20
24636;DHT22;12772;49.794;10.024;2023-04-03T01:14:24;5.90;47.60
24636;DHT22;12772;49.794;10.024;2023-04-03T01:18:26;6.00;48.10
24636;DHT22;12772;49.794;10.024;2023-04-03T01:22:39;5.50;48.50
24636;DHT22;12772;49.794;10.024;2023-04-03T01:26:43;6.00;48.20
24636;DHT22;12772;49.794;10.024;2023-04-03T01:31:07;5.90;48.30
24636;DHT22;12772;49.794;10.024;2023-04-03T01:35:11;5.90;48.60
24636;DHT22;12772;49.794;10.024;2023-04-03T01:39:14;5.70;48.40
24636;DHT22;12772;49.794;10.024;2023-04-03T01:43:16;5.50;48.40
24636;DHT22;12772;49.794;10.024;2023-04-03T01:47:18;6.00;49.00
24636;DHT22;12772;49.794;10.024;2023-04-03T01:51:20;6.00;49.10
24636;DHT22;12772;49.794;10.024;2023-04-03T01:55:22;5.50;48.70
24636;DHT22;12772;49.794;10.024;2023-04-03T01:59:24;6.10;49.40
24636;DHT22;12772;49.794;10.024;2023-04-03T02:03:26;5.70;49.00
24636;DHT22;12772;49.794;10.024;2023-04-03T02:07:28;6.10;49.20
24636;DHT22;12772;49.794;10.024;2023-04-03T02:11:31;6.10;49.20
24636;DHT22;12772;49.794;10.024;2023-04-03T02:15:33;6.20;49.40
24636;DHT22;12772;49.794;10.024;2023-04-03T02:19:35;6.00;49.40
24636;DHT22;12772;49.794;10.024;2023-04-03T02:23:37;5.80;49.20
24636;DHT22;12772;49.794;10.024;2023-04-03T02:27:39;6.30;49.60
24636;DHT22;12772;49.794;10.024;2023-04-03T02:31:41;6.30;50.10
24636;DHT22;12772;49.794;10.024;2023-04-03T02:35:43;5.90;49.10
24636;DHT22;12772;49.794;10.024;2023-04-03T02:39:47;6.10;49.20
24636;DHT22;12772;49.794;10.024;2023-04-03T02:43:49;6.30;49.30
24636;DHT22;12772;49.794;10.024;2023-04-03T02:47:51;6.30;49.20
24636;DHT22;12772;49.794;10.024;2023-04-03T02:51:53;6.10;49.10
24636;DHT22;12772;49.794;10.024;2023-04-03T02:55:55;6.50;49.60
24636;DHT22;12772;49.794;10.024;2023-04-03T02:59:57;6.30;49.40
24636;DHT22;12772;49.794;10.024;2023-04-03T03:03:59;6.00;49.20
24636;DHT22;12772;49.794;10.024;2023-04-03T03:08:01;6.40;49.70
24636;DHT22;12772;49.794;10.024;2023-04-03T03:12:03;6.20;49.60
24636;DHT22;12772;49.794;10.024;2023-04-03T03:16:06;6.40;49.80
24636;DHT22;12772;49.794;10.024;2023-04-03T03:20:08;6.50;50.00
24636;DHT22;12772;49.794;10.024;2023-04-03T03:24:11;6.70;50.40
24636;DHT22;12772;49.794;10.024;2023-04-03T03:28:13;6.50;50.30
24636;DHT22;12772;49.794;10.024;2023-04-03T03:32:15;6.50;50.40
24636;DHT22;12772;49.794;10.024;2023-04-03T03:36:17;6.50;50.80
24636;DHT22;12772;49.794;10.024;2023-04-03T03:40:19;6.50;50.90
24636;DHT22;12772;49.794;10.024;2023-04-03T03:44:22;6.30;51.10
24636;DHT22;12772;49.794;10.024;2023-04-03T03:48:24;6.50;51.50
24636;DHT22;12772;49.794;10.024;2023-04-03T03:52:26;6.40;51.70
24636;DHT22;12772;49.794;10.024;2023-04-03T03:56:29;6.00;51.60
24636;DHT22;12772;49.794;10.024;2023-04-03T04:00:31;6.10;51.70
24636;DHT22;12772;49.794;10.024;2023-04-03T04:04:33;6.40;52.30
24636;DHT22;12772;49.794;10.024;2023-04-03T04:08:35;6.40;52.40
24636;DHT22;12772;49.794;10.024;2023-04-03T04:12:37;6.00;52.00
24636;DHT22;12772;49.794;10.024;2023-04-03T04:16:39;5.90;52.00
24636;DHT22;12772;49.794;10.024;2023-04-03T04:20:41;6.50;52.70
24636;DHT22;12772;49.794;10.024;2023-04-03T04:24:43;6.40;52.70
24636;DHT22;12772;49.794;10.024;2023-04-03T04:28:45;6.20;52.30
24636;DHT22;12772;49.794;10.024;2023-04-03T04:32:47;6.40;52.60
24636;DHT22;12772;49.794;10.024;2023-04-03T04:36:49;6.20;51.90
24636;DHT22;12772;49.794;10.024;2023-04-03T04:40:51;5.80;51.60
24636;DHT22;12772;49.794;10.024;2023-04-03T04:44:53;5.90;51.70
24636;DHT22;12772;49.794;10.024;2023-04-03T04:48:55;5.70;51.50
24636;DHT22;12772;49.794;10.024;2023-04-03T04:52:57;5.80;51.60
24636;DHT22;12772;49.794;10.024;2023-04-03T04:56:59;5.60;51.00
24636;DHT22;12772;49.794;10.024;2023-04-03T05:01:03;5.70;51.00
24636;DHT22;12772;49.794;10.024;2023-04-03T05:05:06;6.30;51.60
24636;DHT22;12772;49.794;10.024;2023-04-03T05:09:08;6.00;51.10
24636;DHT22;12772;49.794;10.024;2023-04-03T05:13:10;5.70;50.50
24636;DHT22;12772;49.794;10.024;2023-04-03T05:17:12;5.50;50.20
24636;DHT22;12772;49.794;10.024;2023-04-03T05:21:14;5.50;50.40
24636;DHT22;12772;49.794;10.024;2023-04-03T05:25:18;5.60;50.60
24636;DHT22;12772;49.794;10.024;2023-04-03T05:29:21;5.50;50.60
24636;DHT22;12772;49.794;10.024;2023-04-03T05:33:24;5.10;50.20
24636;DHT22;12772;49.794;10.024;2023-04-03T05:37:27;5.40;50.50
24636;DHT22;12772;49.794;10.024;2023-04-03T05:41:29;5.40;50.60
24636;DHT22;12772;49.794;10.024;2023-04-03T05:45:31;5.40;50.80
24636;DHT22;12772;49.794;10.024;2023-04-03T05:49:33;5.30;50.90
24636;DHT22;12772;49.794;10.024;2023-04-03T05:53:36;4.80;50.40
24636;DHT22;12772;49.794;10.024;2023-04-03T05:57:38;5.20;51.00
24636;DHT22;12772;49.794;10.024;2023-04-03T06:01:40;5.30;51.40
24636;DHT22;12772;49.794;10.024;2023-04-03T06:05:42;5.00;51.20
24636;DHT22;12772;49.794;10.024;2023-04-03T06:09:45;5.00;50.90
24636;DHT22;12772;49.794;10.024;2023-04-03T06:13:47;5.40;51.20
24636;DHT22;12772;49.794;10.024;2023-04-03T06:17:49;5.20;51.00
24636;DHT22;12772;49.794;10.024;2023-04-03T06:21:51;5.00;51.30
24636;DHT22;12772;49.794;10.024;2023-04-03T06:25:53;5.50;50.90
24636;DHT22;12772;49.794;10.024;2023-04-03T06:29:55;5.50;50.70
24636;DHT22;12772;49.794;10.024;2023-04-03T06:33:57;5.10;50.40
24636;DHT22;12772;49.794;10.024;2023-04-03T06:38:00;5.50;50.80
24636;DHT22;12772;49.794;10.024;2023-04-03T06:42:02;5.30;50.00
24636;DHT22;12772;49.794;10.024;2023-04-03T06:46:04;5.50;49.90
24636;DHT22;12772;49.794;10.024;2023-04-03T06:50:07;5.30;50.00
24636;DHT22;12772;49.794;10.024;2023-04-03T06:54:09;5.70;50.30
24636;DHT22;12772;49.794;10.024;2023-04-03T06:58:11;5.10;49.90
24636;DHT22;12772;49.794;10.024;2023-04-03T07:02:14;5.40;50.20
24636;DHT22;12772;49.794;10.024;2023-04-03T07:06:17;5.70;50.50
24636;DHT22;12772;49.794;10.024;2023-04-03T07:10:19;5.80;50.30
24636;DHT22;12772;49.794;10.024;2023-04-03T07:14:21;5.40;49.30
24636;DHT22;12772;49.794;10.024;2023-04-03T07:18:23;5.50;48.90
24636;DHT22;12772;49.794;10.024;2023-04-03T07:22:26;6.00;49.40
24636;DHT22;12772;49.794;10.024;2023-04-03T07:26:28;5.70;48.90
24636;DHT22;12772;49.794;10.024;2023-04-03T07:30:30;5.70;48.60
24636;DHT22;12772;49.794;10.024;2023-04-03T07:34:32;5.90;48.00
24636;DHT22;12772;49.794;10.024;2023-04-03T07:38:35;5.90;47.40
24636;DHT22;12772;49.794;10.024;2023-04-03T07:42:37;6.40;47.60
24636;DHT22;12772;49.794;10.024;2023-04-03T07:46:39;6.40;46.40
24636;DHT22;12772;49.794;10.024;2023-04-03T07:50:42;6.10;46.30
24636;DHT22;12772;49.794;10.024;2023-04-03T07:54:44;6.60;46.60
24636;DHT22;12772;49.794;10.024;2023-04-03T07:58:46;6.50;45.90
24636;DHT22;12772;49.794;10.024;2023-04-03T08:02:48;7.00;46.30
24636;DHT22;12772;49.794;10.024;2023-04-03T08:06:52;6.90;46.00
24636;DHT22;12772;49.794;10.024;2023-04-03T08:10:54;6.80;44.90
24636;DHT22;12772;49.794;10.024;2023-04-03T08:14:56;6.70;44.60
24636;DHT22;12772;49.794;10.024;2023-04-03T08:18:58;7.20;44.90
24636;DHT22;12772;49.794;10.024;2023-04-03T08:23:01;7.50;44.90
24636;DHT22;12772;49.794;10.024;2023-04-03T08:27:03;7.10;43.70
24636;DHT22;12772;49.794;10.024;2023-04-03T08:31:07;7.50;44.40
24636;DHT22;12772;49.794;10.024;2023-04-03T08:35:11;7.30;42.90
24636;DHT22;12772;49.794;10.024;2023-04-03T08:39:13;7.70;43.00
24636;DHT22;12772;49.794;10.024;2023-04-03T08:43:52;8.00;42.90
24636;DHT22;12772;49.794;10.024;2023-04-03T08:48:03;7.90;42.10
24636;DHT22;12772;49.794;10.024;2023-04-03T08:52:15;7.50;40.70
24636;DHT22;12772;49.794;10.024;2023-04-03T08:56:18;7.90;40.70
24636;DHT22;12772;49.794;10.024;2023-04-03T09:00:23;7.90;40.40
24636;DHT22;12772;49.794;10.024;2023-04-03T09:04:26;7.80;39.60
24636;DHT22;12772;49.794;10.024;2023-04-03T09:12:46;8.00;39.80
24636;DHT22;12772;49.794;10.024;2023-04-03T09:17:29;8.30;40.20
24636;DHT22;12772;49.794;10.024;2023-04-03T09:21:39;8.70;40.00
24636;DHT22;12772;49.794;10.024;2023-04-03T09:25:43;8.80;38.80
24636;DHT22;12772;49.794;10.024;2023-04-03T09:29:45;8.50;38.50
24636;DHT22;12772;49.794;10.024;2023-04-03T09:33:54;9.10;38.80
24636;DHT22;12772;49.794;10.024;2023-04-03T09:42:24;9.00;35.30
24636;DHT22;12772;49.794;10.024;2023-04-03T09:46:31;8.60;34.60
24636;DHT22;12772;49.794;10.024;2023-04-03T09:50:35;9.20;34.40
24636;DHT22;12772;49.794;10.024;2023-04-03T09:54:38;9.30;33.20
24636;DHT22;12772;49.794;10.024;2023-04-03T09:58:44;9.40;32.80
24636;DHT22;12772;49.794;10.024;2023-04-03T10:02:51;9.50;31.00
24636;DHT22;12772;49.794;10.024;2023-04-03T10:06:55;9.10;31.40
24636;DHT22;12772;49.794;10.024;2023-04-03T10:15:15;9.80;31.00
24636;DHT22;12772;49.794;10.024;2023-04-03T10:28:15;9.90;28.90
24636;DHT22;12772;49.794;10.024;2023-04-03T10:41:16;9.90;27.30
24636;DHT22;12772;49.794;10.024;2023-04-03T10:45:48;10.00;27.60
24636;DHT22;12772;49.794;10.024;2023-04-03T10:50:21;10.30;27.30
24636;DHT22;12772;49.794;10.024;2023-04-03T10:54:29;10.50;26.80
24636;DHT22;12772;49.794;10.024;2023-04-03T10:58:38;10.10;26.20
24636;DHT22;12772;49.794;10.024;2023-04-03T11:02:57;10.60;26.40
24636;DHT22;12772;49.794;10.024;2023-04-03T11:07:11;10.80;25.30
24636;DHT22;12772;49.794;10.024;2023-04-03T11:11:38;10.40;24.90
24636;DHT22;12772;49.794;10.024;2023-04-03T11:15:42;10.60;25.20
24636;DHT22;12772;49.794;10.024;2023-04-03T11:19:47;10.40;25.50
24636;DHT22;12772;49.794;10.024;2023-04-03T11:23:53;10.50;26.00
24636;DHT22;12772;49.794;10.024;2023-04-03T11:28:01;10.50;26.10
24636;DHT22;12772;49.794;10.024;2023-04-03T11:36:24;10.90;25.40
24636;DHT22;12772;49.794;10.024;2023-04-03T11:40:30;10.70;25.50
24636;DHT22;12772;49.794;10.024;2023-04-03T11:44:37;11.00;24.50
24636;DHT22;12772;49.794;10.024;2023-04-03T11:48:43;10.90;25.20
24636;DHT22;12772;49.794;10.024;2023-04-03T11:56:50;10.80;24.50
24636;DHT22;12772;49.794;10.024;2023-04-03T12:01:02;10.60;21.90
24636;DHT22;12772;49.794;10.024;2023-04-03T12:05:27;10.90;23.40
24636;DHT22;12772;49.794;10.024;2023-04-03T12:09:34;11.20;23.70
24636;DHT22;12772;49.794;10.024;2023-04-03T12:17:39;11.40;23.30
24636;DHT22;12772;49.794;10.024;2023-04-03T12:25:50;11.70;23.50
24636;DHT22;12772;49.794;10.024;2023-04-03T12:34:18;11.80;22.80
24636;DHT22;12772;49.794;10.024;2023-04-03T12:38:49;11.80;21.40
24636;DHT22;12772;49.794;10.024;2023-04-03T12:47:27;11.70;20.40
24636;DHT22;12772;49.794;10.024;2023-04-03T12:51:42;11.90;21.80
24636;DHT22;12772;49.794;10.024;2023-04-03T12:55:45;11.90;21.70
24636;DHT22;12772;49.794;10.024;2023-04-03T12:59:47;12.10;21.90
24636;DHT22;12772;49.794;10.024;2023-04-03T13:03:56;12.10;20.80
24636;DHT22;12772;49.794;10.024;2023-04-03T13:08:03;12.20;20.80
24636;DHT22;12772;49.794;10.024;2023-04-03T13:12:14;12.20;20.70
24636;DHT22;12772;49.794;10.024;2023-04-03T13:16:18;11.80;19.80
24636;DHT22;12772;49.794;10.024;2023-04-03T13:20:27;11.90;19.70
24636;DHT22;12772;49.794;10.024;2023-04-03T13:24:30;11.50;18.80
24636;DHT22;12772;49.794;10.024;2023-04-03T13:28:34;11.40;20.20
24636;DHT22;12772;49.794;10.024;2023-04-03T13:32:37;11.80;18.70
24636;DHT22;12772;49.794;10.024;2023-04-03T13:37:00;11.80;19.60
24636;DHT22;12772;49.794;10.024;2023-04-03T13:41:22;11.90;20.60
24636;DHT22;12772;49.794;10.024;2023-04-03T13:45:27;11.90;20.60
24636;DHT22;12772;49.794;10.024;2023-04-03T13:49:36;12.00;19.20
24636;DHT22;12772;49.794;10.024;2023-04-03T13:58:01;12.00;18.90
24636;DHT22;12772;49.794;10.024;2023-04-03T14:06:07;12.10;18.60
24636;DHT22;12772;49.794;10.024;2023-04-03T14:10:10;11.90;18.70
24636;DHT22;12772;49.794;10.024;2023-04-03T14:14:15;12.00;18.60
24636;DHT22;12772;49.794;10.024;2023-04-03T14:18:19;12.00;19.30
24636;DHT22;12772;49.794;10.024;2023-04-03T14:22:28;12.00;18.90
24636;DHT22;12772;49.794;10.024;2023-04-03T14:26:30;11.90;18.10
24636;DHT22;12772;49.794;10.024;2023-04-03T14:30:33;11.80;19.10
24636;DHT22;12772;49.794;10.024;2023-04-03T14:34:36;11.50;18.40
24636;DHT22;12772;49.794;10.024;2023-04-03T14:38:38;11.60;19.40
24636;DHT22;12772;49.794;10.024;2023-04-03T14:42:40;11.70;20.20
24636;DHT22;12772;49.794;10.024;2023-04-03T14:46:43;11.60;20.00
24636;DHT22;12772;49.794;10.024;2023-04-03T14:50:47;11.60;19.70
24636;DHT22;12772;49.794;10.024;2023-04-03T14:54:50;11.20;19.10
24636;DHT22;12772;49.794;10.024;2023-04-03T14:58:56;11.30;20.10
24636;DHT22;12772;49.794;10.024;2023-04-03T15:02:59;11.60;20.30
24636;DHT22;12772;49.794;10.024;2023-04-03T15:07:01;11.60;20.30
24636;DHT22;12772;49.794;10.024;2023-04-03T15:11:03;11.70;19.40
24636;DHT22;12772;49.794;10.024;2023-04-03T15:15:06;11.60;20.40
24636;DHT22;12772;49.794;10.024;2023-04-03T15:19:09;11.70;20.40
24636;DHT22;12772;49.794;10.024;2023-04-03T15:23:16;11.30;20.10
24636;DHT22;12772;49.794;10.024;2023-04-03T15:27:19;11.60;20.40
24636;DHT22;12772;49.794;10.024;2023-04-03T15:31:21;11.60;20.40
24636;DHT22;12772;49.794;10.024;2023-04-03T15:35:23;11.70;20.40
24636;DHT22;12772;49.794;10.024;2023-04-03T15:39:26;11.70;20.40
24636;DHT22;12772;49.794;10.024;2023-04-03T15:43:28;11.20;19.60
24636;DHT22;12772;49.794;10.024;2023-04-03T15:47:30;11.60;20.30
24636;DHT22;12772;49.794;10.024;2023-04-03T15:51:32;11.50;20.30
24636;DHT22;12772;49.794;10.024;2023-04-03T15:55:35;11.20;20.00
24636;DHT22;12772;49.794;10.024;2023-04-03T15:59:37;11.10;19.90
24636;DHT22;12772;49.794;10.024;2023-04-03T16:03:40;10.90;19.70
24636;DHT22;12772;49.794;10.024;2023-04-03T16:07:46;11.30;20.10
24636;DHT22;12772;49.794;10.024;2023-04-03T16:11:48;11.30;20.10
24636;DHT22;12772;49.794;10.024;2023-04-03T16:15:50;10.80;19.60
24636;DHT22;12772;49.794;10.024;2023-04-03T16:19:54;11.10;19.90
24636;DHT22;12772;49.794;10.024;2023-04-03T16:23:57;10.90;19.80
24636;DHT22;12772;49.794;10.024;2023-04-03T16:28:00;10.80;19.60
24636;DHT22;12772;49.794;10.024;2023-04-03T16:32:02;10.20;19.20
24636;DHT22;12772;49.794;10.024;2023-04-03T16:36:05;10.00;19.70
24636;DHT22;12772;49.794;10.024;2023-04-03T16:40:08;10.30;20.60
24636;DHT22;12772;49.794;10.024;2023-04-03T16:44:11;10.30;21.00
24636;DHT22;12772;49.794;10.024;2023-04-03T16:48:13;10.40;20.80
24636;DHT22;12772;49.794;10.024;2023-04-03T16:52:16;9.80;21.20
24636;DHT22;12772;49.794;10.024;2023-04-03T16:56:18;9.90;21.30
24636;DHT22;12772;49.794;10.024;2023-04-03T17:00:20;9.60;21.30
24636;DHT22;12772;49.794;10.024;2023-04-03T17:04:22;9.90;21.40
24636;DHT22;12772;49.794;10.024;2023-04-03T17:08:24;9.40;21.70
24636;DHT22;12772;49.794;10.024;2023-04-03T17:12:27;9.60;22.60
24636;DHT22;12772;49.794;10.024;2023-04-03T17:16:29;9.20;22.60
24636;DHT22;12772;49.794;10.024;2023-04-03T17:20:32;9.50;22.80
24636;DHT22;12772;49.794;10.024;2023-04-03T17:24:35;9.30;22.60
24636;DHT22;12772;49.794;10.024;2023-04-03T17:28:37;9.10;23.00
24636;DHT22;12772;49.794;10.024;2023-04-03T17:32:41;9.20;22.80
24636;DHT22;12772;49.794;10.024;2023-04-03T17:36:43;8.80;23.10
24636;DHT22;12772;49.794;10.024;2023-04-03T17:40:46;9.00;23.30
24636;DHT22;12772;49.794;10.024;2023-04-03T17:44:48;8.40;23.20
24636;DHT22;12772;49.794;10.024;2023-04-03T17:48:50;8.60;23.50
24636;DHT22;12772;49.794;10.024;2023-04-03T17:52:52;8.80;23.70
24636;DHT22;12772;49.794;10.024;2023-04-03T17:56:54;8.30;23.70
24636;DHT22;12772;49.794;10.024;2023-04-03T18:00:56;8.70;24.30
24636;DHT22;12772;49.794;10.024;2023-04-03T18:04:58;8.50;24.30
24636;DHT22;12772;49.794;10.024;2023-04-03T18:09:07;8.50;24.90
24636;DHT22;12772;49.794;10.024;2023-04-03T18:13:10;8.50;25.30
24636;DHT22;12772;49.794;10.024;2023-04-03T18:17:12;8.10;25.20
24636;DHT22;12772;49.794;10.024;2023-04-03T18:21:14;8.00;25.20
24636;DHT22;12772;49.794;10.024;2023-04-03T18:25:17;8.00;25.40
24636;DHT22;12772;49.794;10.024;2023-04-03T18:29:20;8.10;25.50
24636;DHT22;12772;49.794;10.024;2023-04-03T18:33:22;8.00;25.90
24636;DHT22;12772;49.794;10.024;2023-04-03T18:37:24;8.00;26.10
24636;DHT22;12772;49.794;10.024;2023-04-03T18:41:31;7.80;26.20
24636;DHT22;12772;49.794;10.024;2023-04-03T18:45:33;7.40;26.30
24636;DHT22;12772;49.794;10.024;2023-04-03T18:49:37;7.40;26.40
24636;DHT22;12772;49.794;10.024;2023-04-03T18:53:40;7.80;27.00
24636;DHT22;12772;49.794;10.024;2023-04-03T18:57:41;7.40;26.90
24636;DHT22;12772;49.794;10.024;2023-04-03T19:01:44;7.50;27.10
24636;DHT22;12772;49.794;10.024;2023-04-03T19:05:46;7.40;27.40
24636;DHT22;12772;49.794;10.024;2023-04-03T19:09:48;7.40;27.50
24636;DHT22;12772;49.794;10.024;2023-04-03T19:13:50;7.40;27.50
24636;DHT22;12772;49.794;10.024;2023-04-03T19:17:52;7.10;27.50
24636;DHT22;12772;49.794;10.024;2023-04-03T19:21:54;7.20;27.90
24636;DHT22;12772;49.794;10.024;2023-04-03T19:26:01;7.20;28.20
24636;DHT22;12772;49.794;10.024;2023-04-03T19:30:08;7.40;28.60
24636;DHT22;12772;49.794;10.024;2023-04-03T19:34:11;7.00;28.60
24636;DHT22;12772;49.794;10.024;2023-04-03T19:38:13;7.10;28.70
24636;DHT22;12772;49.794;10.024;2023-04-03T19:42:15;7.00;28.60
24636;DHT22;12772;49.794;10.024;2023-04-03T19:46:22;6.90;28.50
24636;DHT22;12772;49.794;10.024;2023-04-03T19:50:24;6.90;28.50
24636;DHT22;12772;49.794;10.024;2023-04-03T19:54:26;6.90;28.50
24636;DHT22;12772;49.794;10.024;2023-04-03T19:58:28;7.00;28.60
24636;DHT22;12772;49.794;10.024;2023-04-03T20:02:30;6.40;28.10
24636;DHT22;12772;49.794;10.024;2023-04-03T20:06:32;6.60;28.30
24636;DHT22;12772;49.794;10.024;2023-04-03T20:10:34;6.50;28.70
24636;DHT22;12772;49.794;10.024;2023-04-03T20:14:39;6.50;29.10
24636;DHT22;12772;49.794;10.024;2023-04-03T20:18:42;6.40;29.40
24636;DHT22;12772;49.794;10.024;2023-04-03T20:22:44;6.40;29.60
24636;DHT22;12772;49.794;10.024;2023-04-03T20:26:46;6.30;29.70
24636;DHT22;12772;49.794;10.024;2023-04-03T20:30:52;6.30;29.90
24636;DHT22;12772;49.794;10.024;2023-04-03T20:34:55;6.10;29.80
24636;DHT22;12772;49.794;10.024;2023-04-03T20:38:58;6.30;30.00
24636;DHT22;12772;49.794;10.024;2023-04-03T20:43:00;6.20;30.00
24636;DHT22;12772;49.794;10.024;2023-04-03T20:47:02;5.80;29.70
24636;DHT22;12772;49.794;10.024;2023-04-03T20:51:13;6.20;30.20
24636;DHT22;12772;49.794;10.024;2023-04-03T20:55:17;6.20;30.10
24636;DHT22;12772;49.794;10.024;2023-04-03T20:59:19;5.60;29.70
24636;DHT22;12772;49.794;10.024;2023-04-03T21:03:23;5.70;29.90
24636;DHT22;12772;49.794;10.024;2023-04-03T21:20:48;5.90;30.40
24636;DHT22;12772;49.794;10.024;2023-04-03T21:24:50;5.80;30.50
24636;DHT22;12772;49.794;10.024;2023-04-03T21:28:53;5.50;30.20
24636;DHT22;12772;49.794;10.024;2023-04-03T21:32:55;5.60;30.30
24636;DHT22;12772;49.794;10.024;2023-04-03T21:41:04;5.30;30.30
24636;DHT22;12772;49.794;10.024;2023-04-03T21:45:06;5.10;30.20
24636;DHT22;12772;49.794;10.024;2023-04-03T21:49:08;5.50;30.80
24636;DHT22;12772;49.794;10.024;2023-04-03T21:53:11;5.00;30.40
24636;DHT22;12772;49.794;10.024;2023-04-03T21:57:13;5.10;30.50
24636;DHT22;12772;49.794;10.024;2023-04-03T22:01:16;4.90;30.30
24636;DHT22;12772;49.794;10.024;2023-04-03T22:05:18;5.00;30.80
24636;DHT22;12772;49.794;10.024;2023-04-03T22:09:20;5.60;31.60
24636;DHT22;12772;49.794;10.024;2023-04-03T22:13:22;5.60;31.50
24636;DHT22;12772;49.794;10.024;2023-04-03T22:17:24;5.00;31.00
24636;DHT22;12772;49.794;10.024;2023-04-03T22:21:30;4.90;31.10
24636;DHT22;12772;49.794;10.024;2023-04-03T22:25:33;5.20;31.50
24636;DHT22;12772;49.794;10.024;2023-04-03T22:29:35;5.20;31.70
24636;DHT22;12772;49.794;10.024;2023-04-03T22:33:37;5.30;31.80
24636;DHT22;12772;49.794;10.024;2023-04-03T22:37:39;5.00;31.70
24636;DHT22;12772;49.794;10.024;2023-04-03T22:41:41;4.70;31.50
24636;DHT22;12772;49.794;10.024;2023-04-03T22:45:48;5.30;32.30
24636;DHT22;12772;49.794;10.024;2023-04-03T22:49:50;5.10;32.10
24636;DHT22;12772;49.794;10.024;2023-04-03T22:53:52;5.10;32.40
24636;DHT22;12772;49.794;10.024;2023-04-03T22:57:54;5.00;32.50
24636;DHT22;12772;49.794;10.024;2023-04-03T23:01:56;4.60;32.20
24636;DHT22;12772;49.794;10.024;2023-04-03T23:05:58;4.70;32.20
24636;DHT22;12772;49.794;10.024;2023-04-03T23:10:01;4.90;32.50
24636;DHT22;12772;49.794;10.024;2023-04-03T23:14:03;4.60;32.30
24636;DHT22;12772;49.794;10.024;2023-04-03T23:18:05;4.70;32.60
24636;DHT22;12772;49.794;10.024;2023-04-03T23:22:07;4.90;33.00
24636;DHT22;12772;49.794;10.024;2023-04-03T23:26:11;4.80;32.80
24636;DHT22;12772;49.794;10.024;2023-04-03T23:30:13;5.10;33.30
24636;DHT22;12772;49.794;10.024;2023-04-03T23:34:15;4.70;32.70
24636;DHT22;12772;49.794;10.024;2023-04-03T23:38:17;4.80;32.80
24636;DHT22;12772;49.794;10.024;2023-04-03T23:42:19;4.80;33.10
24636;DHT22;12772;49.794;10.024;2023-04-03T23:46:21;4.90;33.20
24636;DHT22;12772;49.794;10.024;2023-04-03T23:50:24;4.70;32.80
24636;DHT22;12772;49.794;10.024;2023-04-03T23:54:26;4.30;32.40
24636;DHT22;12772;49.794;10.024;2023-04-03T23:58:28;4.30;32.50
